Terminal Aerodrome Forecast
Issued by NWS

Home | Current Version | Previous Version | Text Only | Print | Product List | Glossary On
Versions: 1 2 3 4 5 6 7 8 9 10 11 12 13 14 15 16 17 18 19 20 21 22 23 24 25 26
000
FTUS46 KSGX 221700
TAFSAN
TAF
KSAN 221724Z 2218/2324 VRB04KT P6SM SCT015
     FM221900 27010KT P6SM SKC
     FM230300 28005KT P6SM FEW013
     FM230500 VRB04KT P6SM OVC012
     FM231600 VRB03KT P6SM FEW015
     FM232000 26009KT P6SM FEW015=

USA.gov is the U.S. government's official web portal to all federal, state and local government web resources and services.